createdAt,value
2016-06-22T00:00:56.524Z,21.61
2016-06-22T00:01:56.456Z,21.64
2016-06-22T00:02:56.494Z,21.55
2016-06-22T00:03:56.491Z,21.67
2016-06-22T00:04:56.523Z,21.64
2016-06-22T00:05:56.492Z,21.56
2016-06-22T00:06:56.496Z,21.59
2016-06-22T00:07:56.505Z,21.55
2016-06-22T00:08:56.540Z,21.53
2016-06-22T00:09:56.538Z,21.53
2016-06-22T00:10:56.519Z,21.56
2016-06-22T00:11:56.510Z,21.55
2016-06-22T00:12:56.559Z,21.53
2016-06-22T00:13:56.554Z,21.49
2016-06-22T00:14:56.545Z,21.46
2016-06-22T00:15:56.484Z,21.46
2016-06-22T00:16:56.489Z,21.49
2016-06-22T00:17:56.504Z,21.53
2016-06-22T00:18:56.520Z,21.45
2016-06-22T00:19:56.558Z,21.43
2016-06-22T00:20:56.555Z,21.43
2016-06-22T00:21:56.514Z,21.46
2016-06-22T00:22:56.526Z,21.41
2016-06-22T00:23:56.504Z,21.45
2016-06-22T00:24:56.554Z,21.38
2016-06-22T00:25:56.562Z,21.43
2016-06-22T00:26:56.510Z,21.46
2016-06-22T00:27:56.531Z,21.38
2016-06-22T00:28:56.535Z,21.34
2016-06-22T00:29:56.529Z,21.34
2016-06-22T00:30:56.534Z,21.36
2016-06-22T00:31:56.538Z,21.38
2016-06-22T00:32:56.543Z,21.36
2016-06-22T00:33:56.534Z,21.33
2016-06-22T00:34:56.553Z,21.28
2016-06-22T00:35:56.518Z,21.34
2016-06-22T00:36:56.593Z,21.33
2016-06-22T00:37:56.514Z,21.33
2016-06-22T00:38:56.527Z,21.36
2016-06-22T00:39:56.560Z,21.28
2016-06-22T00:40:56.593Z,21.27
2016-06-22T00:41:56.561Z,21.31
2016-06-22T00:42:56.559Z,21.33
2016-06-22T00:43:56.527Z,21.27
2016-06-22T00:44:56.554Z,21.27
2016-06-22T00:45:56.559Z,21.25
2016-06-22T00:46:56.527Z,21.3
2016-06-22T00:47:56.597Z,21.37
2016-06-22T00:48:56.568Z,21.28
2016-06-22T00:49:56.578Z,21.36
2016-06-22T00:50:56.565Z,21.33
2016-06-22T00:51:56.566Z,21.3
2016-06-22T00:52:56.540Z,21.28
2016-06-22T00:53:56.543Z,21.27
2016-06-22T00:54:56.571Z,21.3
2016-06-22T00:55:56.616Z,21.3
2016-06-22T00:56:56.575Z,21.25
2016-06-22T00:57:56.573Z,21.22
2016-06-22T00:58:56.580Z,21.27
2016-06-22T00:59:56.628Z,21.23
2016-06-22T01:00:56.601Z,21.23
2016-06-22T01:01:56.619Z,21.16
2016-06-22T01:02:56.579Z,21.25
2016-06-22T01:03:56.583Z,21.31
2016-06-22T01:04:56.558Z,21.19
2016-06-22T01:05:56.614Z,21.16
2016-06-22T01:06:56.578Z,21.25
2016-06-22T01:07:56.631Z,21.27
2016-06-22T01:08:56.561Z,21.15
2016-06-22T01:09:56.635Z,21.27
2016-06-22T01:10:56.633Z,21.15
2016-06-22T01:11:56.599Z,21.19
2016-06-22T01:12:56.606Z,21.22
2016-06-22T01:13:56.610Z,21.25
2016-06-22T01:14:56.578Z,21.22
2016-06-22T01:15:56.593Z,21.25
2016-06-22T01:16:56.606Z,21.25
2016-06-22T01:17:56.583Z,21.16
2016-06-22T01:18:56.606Z,21.25
2016-06-22T01:19:56.612Z,21.21
2016-06-22T01:20:56.815Z,21.25
2016-06-22T01:21:56.583Z,21.27
2016-06-22T01:22:56.579Z,21.08
2016-06-22T01:23:56.653Z,21.28
2016-06-22T01:24:56.616Z,21.16
2016-06-22T01:25:56.655Z,21.25
2016-06-22T01:26:56.625Z,21.18
2016-06-22T01:27:56.619Z,21.23
2016-06-22T01:28:56.593Z,21.21
2016-06-22T01:29:56.621Z,21.22
2016-06-22T01:30:56.630Z,21.16
2016-06-22T01:31:56.651Z,21.28
2016-06-22T01:32:56.641Z,21.27
2016-06-22T01:33:56.638Z,21.27
2016-06-22T01:34:56.636Z,21.25
2016-06-22T01:35:56.628Z,21.16
2016-06-22T01:36:56.629Z,21.18
2016-06-22T01:37:56.674Z,21.19
2016-06-22T01:38:56.666Z,21.16
2016-06-22T01:39:56.629Z,21.23
2016-06-22T01:40:56.675Z,21.19
2016-06-22T01:41:56.602Z,21.23
2016-06-22T01:42:56.603Z,21.25
2016-06-22T01:43:56.623Z,21.22
2016-06-22T01:44:56.626Z,21.21
2016-06-22T01:45:56.611Z,21.16
2016-06-22T01:46:56.613Z,21.19
2016-06-22T01:47:56.641Z,21.12
2016-06-22T01:48:56.645Z,21.15
2016-06-22T01:49:56.677Z,21.16
2016-06-22T01:50:56.653Z,21.15
2016-06-22T01:51:56.622Z,21.23
2016-06-22T01:52:56.651Z,21.19
2016-06-22T01:53:56.667Z,21.23
2016-06-22T01:54:56.647Z,21.15
2016-06-22T01:55:56.630Z,21.13
2016-06-22T01:56:56.659Z,21.3
2016-06-22T01:57:56.655Z,21.15
2016-06-22T01:58:56.682Z,21.22
2016-06-22T01:59:56.696Z,21.27
2016-06-22T02:00:56.671Z,21.22
2016-06-22T02:01:56.686Z,21.21
2016-06-22T02:02:56.663Z,21.22
2016-06-22T02:03:56.684Z,21.13
2016-06-22T02:04:56.640Z,21.22
2016-06-22T02:05:56.691Z,21.23
2016-06-22T02:06:56.670Z,21.16
2016-06-22T02:07:56.701Z,21.23
2016-06-22T02:08:56.714Z,21.19
2016-06-22T02:09:56.722Z,21.15
2016-06-22T02:10:56.657Z,21.19
2016-06-22T02:11:56.677Z,21
2016-06-22T02:12:56.687Z,21.22
2016-06-22T02:13:56.686Z,21.13
2016-06-22T02:14:56.654Z,21.09
2016-06-22T02:15:56.657Z,21.09
2016-06-22T02:16:56.701Z,21.04
2016-06-22T02:17:56.694Z,21.04
2016-06-22T02:18:56.690Z,21.09
2016-06-22T02:19:56.695Z,21.06
2016-06-22T02:20:56.696Z,21.09
2016-06-22T02:21:56.734Z,21.06
2016-06-22T02:22:56.698Z,21.06
2016-06-22T02:23:56.686Z,21.04
2016-06-22T02:24:56.670Z,21.06
2016-06-22T02:25:56.727Z,21.03
2016-06-22T02:26:56.706Z,21
2016-06-22T02:27:56.739Z,21.09
2016-06-22T02:28:56.666Z,21.01
2016-06-22T02:29:56.675Z,21.06
2016-06-22T02:30:56.698Z,21.11
2016-06-22T02:31:56.677Z,21.11
2016-06-22T02:32:56.698Z,21.11
2016-06-22T02:33:56.678Z,21.13
2016-06-22T02:34:56.728Z,21.11
2016-06-22T02:35:56.706Z,21.09
2016-06-22T02:36:56.687Z,21.12
2016-06-22T02:37:56.759Z,21.09
2016-06-22T02:38:56.692Z,21.19
2016-06-22T02:39:56.753Z,21.09
2016-06-22T02:40:56.743Z,21.09
2016-06-22T02:41:56.721Z,21.15
2016-06-22T02:42:56.721Z,21.12
2016-06-22T02:43:56.752Z,21.16
2016-06-22T02:44:56.759Z,21.13
2016-06-22T02:45:56.735Z,21.18
2016-06-22T02:46:56.712Z,21.19
2016-06-22T02:47:56.757Z,21.04
2016-06-22T02:48:56.733Z,21.15
2016-06-22T02:49:56.735Z,21.21
2016-06-22T02:50:56.720Z,21.19
2016-06-22T02:51:56.726Z,21.15
2016-06-22T02:52:56.774Z,21.19
2016-06-22T02:53:56.708Z,21.09
2016-06-22T02:54:56.735Z,21.13
2016-06-22T02:55:56.735Z,21.15
2016-06-22T02:56:56.774Z,21.18
2016-06-22T02:57:56.742Z,21.21
2016-06-22T02:58:56.740Z,21.13
2016-06-22T02:59:56.743Z,21.13
2016-06-22T03:00:56.747Z,21.16
2016-06-22T03:01:56.753Z,21.15
2016-06-22T03:02:56.750Z,21.11
2016-06-22T03:03:56.727Z,21.09
2016-06-22T03:04:56.725Z,21.04
2016-06-22T03:05:56.747Z,21.08
2016-06-22T03:06:56.779Z,21.15
2016-06-22T03:07:56.726Z,21.09
2016-06-22T03:08:56.759Z,21.3
2016-06-22T03:09:56.777Z,21.12
2016-06-22T03:10:56.787Z,21.12
2016-06-22T03:11:56.731Z,21.19
2016-06-22T03:12:56.761Z,21.15
2016-06-22T03:13:56.773Z,21.18
2016-06-22T03:14:56.793Z,21.11
2016-06-22T03:15:56.762Z,21.18
2016-06-22T03:16:56.773Z,21.22
2016-06-22T03:17:56.783Z,21.04
2016-06-22T03:18:56.758Z,21.22
2016-06-22T03:19:56.811Z,21.23
2016-06-22T03:20:56.775Z,21.22
2016-06-22T03:21:56.820Z,21.18
2016-06-22T03:22:56.778Z,21.03
2016-06-22T03:23:56.815Z,21.12
2016-06-22T03:24:56.808Z,21.15
2016-06-22T03:25:56.774Z,21.15
2016-06-22T03:26:56.747Z,21.01
2016-06-22T03:27:56.787Z,21.16
2016-06-22T03:28:56.777Z,21.16
2016-06-22T03:29:56.780Z,21.13
2016-06-22T03:30:56.770Z,21.11
2016-06-22T03:31:56.831Z,21.22
2016-06-22T03:32:56.760Z,21.12
2016-06-22T03:33:56.798Z,21.22
2016-06-22T03:34:56.818Z,21.19
2016-06-22T03:35:56.767Z,21.22
2016-06-22T03:36:56.832Z,21.28
2016-06-22T03:37:56.853Z,21.18
2016-06-22T03:38:56.792Z,21.22
2016-06-22T03:39:56.800Z,21.16
2016-06-22T03:40:56.843Z,21.19
2016-06-22T03:41:56.800Z,21.22
2016-06-22T03:42:56.814Z,21.23
2016-06-22T03:43:56.840Z,21.19
2016-06-22T03:44:56.804Z,21.21
2016-06-22T03:45:56.837Z,21.22
2016-06-22T03:46:56.851Z,21.18
2016-06-22T03:47:56.809Z,21.25
2016-06-22T03:48:56.833Z,21.19
2016-06-22T03:49:56.891Z,21.25
2016-06-22T03:50:56.785Z,21.23
2016-06-22T03:51:56.860Z,21.23
2016-06-22T03:52:56.826Z,21.28
2016-06-22T03:53:56.819Z,21.22
2016-06-22T03:54:56.834Z,21.21
2016-06-22T03:55:56.870Z,21.18
2016-06-22T03:56:56.821Z,21.12
2016-06-22T03:57:56.806Z,21.15
2016-06-22T03:58:56.833Z,21.28
2016-06-22T03:59:56.871Z,21.06
2016-06-22T04:00:56.807Z,21.16
2016-06-22T04:01:56.838Z,21.28
2016-06-22T04:02:56.839Z,21.27
2016-06-22T04:03:56.867Z,21.16
2016-06-22T04:04:56.809Z,21.19
2016-06-22T04:05:56.867Z,21.18
2016-06-22T04:06:56.846Z,21.13
2016-06-22T04:07:56.883Z,21.23
2016-06-22T04:08:56.842Z,21.16
2016-06-22T04:09:56.871Z,21.16
2016-06-22T04:10:56.813Z,21.33
2016-06-22T04:11:56.822Z,21.31
2016-06-22T04:12:56.822Z,21.19
2016-06-22T04:13:56.864Z,21.19
2016-06-22T04:14:56.854Z,21.23
2016-06-22T04:15:56.851Z,21.13
2016-06-22T04:16:56.852Z,21.13
2016-06-22T04:17:56.869Z,21.21
2016-06-22T04:18:56.864Z,21.23
2016-06-22T04:19:56.905Z,21.18
2016-06-22T04:20:56.875Z,21.18
2016-06-22T04:21:56.891Z,21.3
2016-06-22T04:22:56.833Z,21.22
2016-06-22T04:23:56.871Z,21.16
2016-06-22T04:24:56.839Z,21.15
2016-06-22T04:25:56.889Z,21.19
2016-06-22T04:26:56.847Z,21.16
2016-06-22T04:27:56.897Z,21.18
2016-06-22T04:28:56.838Z,21.31
2016-06-22T04:29:56.852Z,21.28
2016-06-22T04:30:56.906Z,21.33
2016-06-22T04:31:56.837Z,21.25
2016-06-22T04:32:56.853Z,21.25
2016-06-22T04:33:56.870Z,21.3
2016-06-22T04:34:56.909Z,21.33
2016-06-22T04:35:56.856Z,21.25
2016-06-22T04:36:56.876Z,21.3
2016-06-22T04:37:56.955Z,21.31
2016-06-22T04:38:56.908Z,21.33
2016-06-22T04:39:56.888Z,21.36
2016-06-22T04:40:56.897Z,21.3
2016-06-22T04:41:56.891Z,21.37
2016-06-22T04:42:56.891Z,21.36
2016-06-22T04:43:56.924Z,21.38
2016-06-22T04:44:56.936Z,21.38
2016-06-22T04:45:56.939Z,21.41
2016-06-22T04:46:56.932Z,21.41
2016-06-22T04:47:56.892Z,21.4
2016-06-22T04:48:56.928Z,21.43
2016-06-22T04:49:56.877Z,21.36
2016-06-22T04:50:56.910Z,21.4
2016-06-22T04:51:56.915Z,21.33
2016-06-22T04:52:56.945Z,21.38
2016-06-22T04:53:56.901Z,21.37
2016-06-22T04:54:56.884Z,21.33
2016-06-22T04:55:56.953Z,21.3
2016-06-22T04:56:56.915Z,21.27
2016-06-22T04:57:56.956Z,21.33
2016-06-22T04:58:56.914Z,21.34
2016-06-22T04:59:56.908Z,21.28
2016-06-22T05:00:56.916Z,21.33
2016-06-22T05:01:56.951Z,21.28
2016-06-22T05:02:56.961Z,21.34
2016-06-22T05:03:56.918Z,21.33
2016-06-22T05:04:56.954Z,21.36
2016-06-22T05:05:56.929Z,21.3
2016-06-22T05:06:56.896Z,21.34
2016-06-22T05:07:56.926Z,21.27
2016-06-22T05:08:56.919Z,21.27
2016-06-22T05:09:56.937Z,21.3
2016-06-22T05:10:56.936Z,21.23
2016-06-22T05:11:57.015Z,21.21
2016-06-22T05:12:56.931Z,21.27
2016-06-22T05:13:56.941Z,21.28
2016-06-22T05:14:56.910Z,21.3
2016-06-22T05:15:56.974Z,21.28
2016-06-22T05:16:56.940Z,21.21
2016-06-22T05:17:56.976Z,21.19
2016-06-22T05:18:56.936Z,21.15
2016-06-22T05:19:56.905Z,21.21
2016-06-22T05:20:56.983Z,21.21
2016-06-22T05:21:56.958Z,21.18
2016-06-22T05:22:56.959Z,21.22
2016-06-22T05:23:56.974Z,21.21
2016-06-22T05:24:56.953Z,21.18
2016-06-22T05:25:56.923Z,21.15
2016-06-22T05:26:56.950Z,21.21
2016-06-22T05:27:56.958Z,21.21
2016-06-22T05:28:56.938Z,21.25
2016-06-22T05:29:57.008Z,21.25
2016-06-22T05:30:56.998Z,21.27
2016-06-22T05:31:56.966Z,21.22
2016-06-22T05:32:56.938Z,21.23
2016-06-22T05:33:56.942Z,21.23
2016-06-22T05:34:56.967Z,21.27
2016-06-22T05:35:56.971Z,21.22
2016-06-22T05:36:56.978Z,21.28
2016-06-22T05:37:57.015Z,21.25
2016-06-22T05:38:56.963Z,21.27
2016-06-22T05:39:56.996Z,21.21
2016-06-22T05:40:56.949Z,21.3
2016-06-22T05:41:57.011Z,21.23
2016-06-22T05:42:57.020Z,21.33
2016-06-22T05:43:57.006Z,21.33
2016-06-22T05:44:56.965Z,21.28
2016-06-22T05:45:57.001Z,21.3
2016-06-22T05:46:57.011Z,21.27
2016-06-22T05:47:57.016Z,21.27
2016-06-22T05:48:56.988Z,21.22
2016-06-22T05:49:56.985Z,21.33
2016-06-22T05:50:56.983Z,21.23
2016-06-22T05:51:57.026Z,21.27
2016-06-22T05:52:56.996Z,21.22
2016-06-22T05:53:57.031Z,21.28
2016-06-22T05:54:56.997Z,21.31
2016-06-22T05:55:57.031Z,21.27
2016-06-22T05:56:57.035Z,21.3
2016-06-22T05:57:57.049Z,21.3
2016-06-22T05:58:56.973Z,21.25
2016-06-22T05:59:57.023Z,21.31
2016-06-22T06:00:57.021Z,21.34
2016-06-22T06:01:57.023Z,21.3
2016-06-22T06:02:57.012Z,21.33
2016-06-22T06:03:56.994Z,21.3
2016-06-22T06:04:57.042Z,21.33
2016-06-22T06:05:57.006Z,21.28
2016-06-22T06:06:57.015Z,21.36
2016-06-22T06:07:56.992Z,21.37
2016-06-22T06:08:57.012Z,21.3
2016-06-22T06:09:56.990Z,21.36
2016-06-22T06:10:57.011Z,21.27
2016-06-22T06:11:57.027Z,21.31
2016-06-22T06:12:57.059Z,21.34
2016-06-22T06:13:57.017Z,21.34
2016-06-22T06:14:57.022Z,21.36
2016-06-22T06:15:57.056Z,21.41
2016-06-22T06:16:57.036Z,21.36
2016-06-22T06:17:57.046Z,21.33
2016-06-22T06:18:57.032Z,21.4
2016-06-22T06:19:57.067Z,21.4
2016-06-22T06:20:57.074Z,21.38
2016-06-22T06:21:57.181Z,21.38
2016-06-22T06:22:57.037Z,21.38
2016-06-22T06:23:57.050Z,21.43
2016-06-22T06:24:57.043Z,21.41
2016-06-22T06:25:57.047Z,21.45
2016-06-22T06:26:57.042Z,21.43
2016-06-22T06:27:57.109Z,21.51
2016-06-22T06:28:57.033Z,21.43
2016-06-22T06:29:57.040Z,21.45
2016-06-22T06:30:57.038Z,21.4
2016-06-22T06:31:57.053Z,21.43
2016-06-22T06:32:57.079Z,21.38
2016-06-22T06:33:57.060Z,21.33
2016-06-22T06:34:57.086Z,21.38
2016-06-22T06:35:57.071Z,21.45
2016-06-22T06:36:57.044Z,21.38
2016-06-22T06:37:57.104Z,21.36
2016-06-22T06:38:57.191Z,21.43
2016-06-22T06:39:57.114Z,21.3
2016-06-22T06:40:57.187Z,21.37
2016-06-22T06:41:57.044Z,21.31
2016-06-22T06:42:57.072Z,21.34
2016-06-22T06:43:57.962Z,21.34
2016-06-22T06:44:57.069Z,21.27
2016-06-22T06:45:57.063Z,21.31
2016-06-22T06:46:57.035Z,21.3
2016-06-22T06:47:57.063Z,21.27
2016-06-22T06:48:57.112Z,21.33
2016-06-22T06:49:57.075Z,21.33
2016-06-22T06:50:57.107Z,21.56
2016-06-22T06:51:57.126Z,21.31
2016-06-22T06:52:57.074Z,21.41
2016-06-22T06:53:57.118Z,21.43
2016-06-22T06:54:57.131Z,21.41
2016-06-22T06:55:57.049Z,21.43
2016-06-22T06:56:57.085Z,21.43
2016-06-22T06:57:57.161Z,21.43
2016-06-22T06:58:57.072Z,21.38
2016-06-22T06:59:57.098Z,21.45
2016-06-22T07:00:57.112Z,21.48
2016-06-22T07:01:57.147Z,21.46
2016-06-22T07:02:57.091Z,21.46
2016-06-22T07:03:57.098Z,21.41
2016-06-22T07:04:57.162Z,21.45
2016-06-22T07:05:57.131Z,21.41
2016-06-22T07:06:57.105Z,21.4
2016-06-22T07:07:57.086Z,21.43
2016-06-22T07:08:57.134Z,21.41
2016-06-22T07:09:57.091Z,21.41
2016-06-22T07:10:57.162Z,21.4
2016-06-22T07:11:57.073Z,21.34
2016-06-22T07:12:57.134Z,21.31
2016-06-22T07:13:57.105Z,21.36
2016-06-22T07:14:57.174Z,21.34
2016-06-22T07:15:57.106Z,21.33
2016-06-22T07:16:57.153Z,21.31
2016-06-22T07:17:57.475Z,21.37
2016-06-22T07:18:57.153Z,21.38
2016-06-22T07:19:57.172Z,21.33
2016-06-22T07:20:57.113Z,21.3
2016-06-22T07:21:57.710Z,21.37
2016-06-22T07:22:57.117Z,21.3
2016-06-22T07:23:57.125Z,21.3
2016-06-22T07:24:57.596Z,21.36
2016-06-22T07:25:57.181Z,21.33
2016-06-22T07:26:57.099Z,21.36
2016-06-22T07:27:57.186Z,21.37
2016-06-22T07:28:57.320Z,21.41
2016-06-22T07:29:57.153Z,21.37
2016-06-22T07:30:57.317Z,21.38
2016-06-22T07:31:57.266Z,21.38
2016-06-22T07:32:57.309Z,21.41
2016-06-22T07:33:57.166Z,21.38
2016-06-22T07:34:57.310Z,21.38
2016-06-22T07:35:57.148Z,21.41
2016-06-22T07:36:57.529Z,21.48
2016-06-22T07:37:57.195Z,21.43
2016-06-22T07:38:57.520Z,21.43
2016-06-22T07:39:57.334Z,21.41
2016-06-22T07:40:57.194Z,21.45
2016-06-22T07:41:57.147Z,21.51
2016-06-22T07:42:57.319Z,21.48
2016-06-22T07:43:57.148Z,21.56
2016-06-22T07:44:57.220Z,21.61
2016-06-22T07:45:57.198Z,21.56
2016-06-22T07:46:57.155Z,21.49
2016-06-22T07:47:57.141Z,21.56
2016-06-22T07:48:57.166Z,21.58
2016-06-22T07:49:57.143Z,21.59
2016-06-22T07:50:57.179Z,21.58
2016-06-22T07:51:57.187Z,21.62
2016-06-22T07:52:57.188Z,21.56
2016-06-22T07:53:57.162Z,21.64
2016-06-22T07:54:57.181Z,21.62
2016-06-22T07:55:57.180Z,21.66
2016-06-22T07:56:57.194Z,21.73
2016-06-22T07:57:57.178Z,21.73
2016-06-22T07:58:57.161Z,21.68
2016-06-22T07:59:57.231Z,21.8
2016-06-22T08:00:58.013Z,21.83
2016-06-22T08:01:57.490Z,21.78
2016-06-22T08:02:57.215Z,21.83
2016-06-22T08:03:57.786Z,21.85
2016-06-22T08:04:57.345Z,21.86
2016-06-22T08:05:57.218Z,21.9
2016-06-22T08:06:57.227Z,21.86
2016-06-22T08:07:57.207Z,21.82
2016-06-22T08:08:57.236Z,21.9
2016-06-22T08:09:57.237Z,21.96
2016-06-22T08:10:57.449Z,21.92
2016-06-22T08:11:57.339Z,21.92
2016-06-22T08:12:57.237Z,22.09
2016-06-22T08:13:57.386Z,22.04
2016-06-22T08:14:57.227Z,22.04
2016-06-22T08:15:57.224Z,22.11
2016-06-22T08:16:57.203Z,22.05
2016-06-22T08:17:57.437Z,22.14
2016-06-22T08:18:58.229Z,22.09
2016-06-22T08:19:57.163Z,22.11
2016-06-22T08:20:57.234Z,22.23
2016-06-22T08:21:57.243Z,22.2
2016-06-22T08:22:58.267Z,22.26
2016-06-22T08:23:57.249Z,22.18
2016-06-22T08:24:57.212Z,22.24
2016-06-22T08:25:57.176Z,22.2
2016-06-22T08:26:57.468Z,22.29
2016-06-22T08:27:57.236Z,22.29
2016-06-22T08:28:57.227Z,22.23
2016-06-22T08:29:57.183Z,22.29
2016-06-22T08:30:57.231Z,22.38
2016-06-22T08:31:57.210Z,22.39
2016-06-22T08:32:57.211Z,22.41
2016-06-22T08:33:57.261Z,22.48
2016-06-22T08:34:57.368Z,22.41
2016-06-22T08:35:57.253Z,22.42
2016-06-22T08:36:57.216Z,22.42
2016-06-22T08:37:57.238Z,22.44
2016-06-22T08:38:57.242Z,22.49
2016-06-22T08:39:57.222Z,22.51
2016-06-22T08:40:57.283Z,22.48
2016-06-22T08:41:57.248Z,22.54
2016-06-22T08:42:57.263Z,22.52
2016-06-22T08:43:57.285Z,22.51
2016-06-22T08:44:57.294Z,22.54
2016-06-22T08:45:57.330Z,22.46
2016-06-22T08:46:57.268Z,22.54
2016-06-22T08:47:57.392Z,22.63
2016-06-22T08:48:57.215Z,22.66
2016-06-22T08:49:57.251Z,22.69
2016-06-22T08:50:57.352Z,22.69
2016-06-22T08:51:57.254Z,22.67
2016-06-22T08:52:57.273Z,22.76
2016-06-22T08:53:57.212Z,22.75
2016-06-22T08:54:57.272Z,22.86
2016-06-22T08:55:57.294Z,22.86
2016-06-22T08:56:57.299Z,22.82
2016-06-22T08:57:57.317Z,22.81
2016-06-22T08:58:57.318Z,22.84
2016-06-22T08:59:57.314Z,22.84
2016-06-22T09:00:57.266Z,22.86
2016-06-22T09:01:57.313Z,22.89
2016-06-22T09:02:57.229Z,22.91
2016-06-22T09:03:57.278Z,22.96
2016-06-22T09:04:57.279Z,22.97
2016-06-22T09:05:57.319Z,22.97
2016-06-22T09:06:57.239Z,23.06
2016-06-22T09:07:57.317Z,23.1
2016-06-22T09:08:57.283Z,23.09
2016-06-22T09:09:57.315Z,23.15
2016-06-22T09:10:57.741Z,23.21
2016-06-22T09:11:57.287Z,23.29
2016-06-22T09:12:57.366Z,23.32
2016-06-22T09:13:57.286Z,23.37
2016-06-22T09:14:57.328Z,23.26
2016-06-22T09:15:57.280Z,23.34
2016-06-22T09:16:57.321Z,23.45
2016-06-22T09:17:57.274Z,23.56
2016-06-22T09:18:57.317Z,23.56
2016-06-22T09:19:57.338Z,23.5
2016-06-22T09:20:57.283Z,23.57
2016-06-22T09:21:57.297Z,23.63
2016-06-22T09:22:57.314Z,23.67
2016-06-22T09:23:57.344Z,23.66
2016-06-22T09:24:57.351Z,23.72
2016-06-22T09:25:57.303Z,23.81
2016-06-22T09:26:57.346Z,23.82
2016-06-22T09:27:57.344Z,23.82
2016-06-22T09:28:57.301Z,23.81
2016-06-22T09:29:57.398Z,23.9
2016-06-22T09:30:57.414Z,23.9
2016-06-22T09:31:57.335Z,23.96
2016-06-22T09:32:57.323Z,23.94
2016-06-22T09:33:57.335Z,23.97
2016-06-22T09:34:57.371Z,24
2016-06-22T09:35:57.308Z,24.04
2016-06-22T09:36:57.401Z,23.99
2016-06-22T09:37:57.329Z,24.03
2016-06-22T09:38:57.303Z,24
2016-06-22T09:39:57.321Z,24.12
2016-06-22T09:40:57.339Z,24.08
2016-06-22T09:41:57.386Z,24.11
2016-06-22T09:42:57.351Z,24.11
2016-06-22T09:43:57.435Z,24.17
2016-06-22T09:44:57.319Z,24.19
2016-06-22T09:45:57.310Z,24.17
2016-06-22T09:46:57.331Z,24.11
2016-06-22T09:47:57.355Z,24.19
2016-06-22T09:48:57.346Z,24.24
2016-06-22T09:49:57.330Z,24.21
2016-06-22T09:50:57.357Z,24.19
2016-06-22T09:51:57.318Z,24.27
2016-06-22T09:52:57.347Z,24.21
2016-06-22T09:53:57.391Z,24.33
2016-06-22T09:54:57.447Z,24.33
2016-06-22T09:55:57.333Z,24.34
2016-06-22T09:56:57.326Z,24.32
2016-06-22T09:57:57.312Z,24.32
2016-06-22T09:58:57.407Z,24.4
2016-06-22T09:59:57.346Z,24.37
2016-06-22T10:00:57.393Z,24.42
2016-06-22T10:01:57.372Z,24.37
2016-06-22T10:02:57.356Z,24.51
2016-06-22T10:03:57.335Z,24.63
2016-06-22T10:04:57.398Z,24.52
2016-06-22T10:05:57.383Z,24.55
2016-06-22T10:06:57.414Z,24.66
2016-06-22T10:07:57.422Z,24.55
2016-06-22T10:08:57.378Z,24.56
2016-06-22T10:09:57.363Z,24.58
2016-06-22T10:10:57.421Z,24.59
2016-06-22T10:11:57.403Z,24.61
2016-06-22T10:12:57.532Z,24.59
2016-06-22T10:14:57.401Z,24.69
2016-06-22T10:15:57.446Z,24.64
2016-06-22T10:16:57.410Z,24.66
2016-06-22T10:17:57.381Z,24.64
2016-06-22T10:18:57.476Z,24.77
2016-06-22T10:19:57.386Z,24.67
2016-06-22T10:20:57.415Z,24.78
2016-06-22T10:21:57.382Z,24.75
2016-06-22T10:22:57.368Z,24.7
2016-06-22T10:23:57.432Z,24.7
2016-06-22T10:24:57.381Z,24.78
2016-06-22T10:25:57.395Z,24.8
2016-06-22T10:26:57.536Z,24.78
2016-06-22T10:27:57.450Z,24.78
2016-06-22T10:28:57.416Z,24.8
2016-06-22T10:29:57.426Z,24.89
2016-06-22T10:30:57.434Z,24.8
2016-06-22T10:31:57.414Z,24.93
2016-06-22T10:32:57.487Z,24.83
2016-06-22T10:33:57.441Z,24.9
2016-06-22T10:34:57.416Z,24.87
2016-06-22T10:35:57.425Z,24.8
2016-06-22T10:36:57.407Z,24.9
2016-06-22T10:37:57.435Z,24.92
2016-06-22T10:38:57.393Z,24.9
2016-06-22T10:39:57.447Z,24.9
2016-06-22T10:40:57.449Z,24.89
2016-06-22T10:41:57.455Z,24.96
2016-06-22T10:42:57.380Z,24.94
2016-06-22T10:43:57.453Z,25.01
2016-06-22T10:44:57.379Z,25.08
2016-06-22T10:45:57.421Z,25.11
2016-06-22T10:46:58.783Z,25.05
2016-06-22T10:47:57.483Z,24.86
2016-06-22T10:48:57.448Z,25.11
2016-06-22T10:49:57.434Z,25.01
2016-06-22T10:50:57.507Z,25.07
2016-06-22T10:51:57.459Z,25.02
2016-06-22T10:52:57.430Z,25.04
2016-06-22T10:53:57.454Z,24.96
2016-06-22T10:54:57.424Z,25.11
2016-06-22T10:55:57.465Z,25.04
2016-06-22T10:56:57.422Z,25.11
2016-06-22T10:57:57.428Z,25.09
2016-06-22T10:58:57.956Z,25.08
2016-06-22T10:59:57.498Z,25.11
2016-06-22T11:00:57.528Z,25.05
2016-06-22T11:01:57.443Z,25.14
2016-06-22T11:02:57.452Z,25.2
2016-06-22T11:03:57.499Z,25.15
2016-06-22T11:04:57.406Z,25.15
2016-06-22T11:05:57.461Z,25.15
2016-06-22T11:06:57.496Z,25.17
2016-06-22T11:07:57.479Z,25.01
2016-06-22T11:08:57.438Z,25.09
2016-06-22T11:09:57.514Z,25.07
2016-06-22T11:10:57.447Z,25.09
2016-06-22T11:11:57.527Z,25.11
2016-06-22T11:12:57.443Z,25.24
2016-06-22T11:13:58.435Z,25.17
2016-06-22T11:14:57.477Z,25.19
2016-06-22T11:15:57.512Z,25.26
2016-06-22T11:16:57.480Z,25.24
2016-06-22T11:18:57.519Z,25.32
2016-06-22T11:19:57.518Z,25.24
2016-06-22T11:20:57.483Z,25.37
2016-06-22T11:21:57.430Z,25.32
2016-06-22T11:22:57.434Z,25.33
2016-06-22T11:23:57.458Z,25.37
2016-06-22T11:24:57.477Z,25.37
2016-06-22T11:25:57.462Z,25.39
2016-06-22T11:26:57.522Z,25.44
2016-06-22T11:27:57.480Z,25.42
2016-06-22T11:28:57.470Z,25.42
2016-06-22T11:29:57.481Z,25.47
2016-06-22T11:30:57.504Z,25.47
2016-06-22T11:31:57.504Z,25.47
2016-06-22T11:32:57.565Z,25.56
2016-06-22T11:33:57.534Z,25.51
2016-06-22T11:34:57.528Z,25.56
2016-06-22T11:35:57.509Z,25.51
2016-06-22T11:36:58.288Z,25.56
2016-06-22T11:37:57.522Z,25.51
2016-06-22T11:38:57.537Z,25.49
2016-06-22T11:39:57.487Z,25.57
2016-06-22T11:40:57.528Z,25.54
2016-06-22T11:41:57.473Z,25.69
2016-06-22T11:42:57.538Z,25.67
2016-06-22T11:43:57.526Z,25.66
2016-06-22T11:44:57.539Z,25.66
2016-06-22T11:45:57.526Z,25.64
2016-06-22T11:46:57.615Z,25.62
2016-06-22T11:47:57.595Z,25.74
2016-06-22T11:48:57.550Z,25.76
2016-06-22T11:49:57.478Z,25.69
2016-06-22T11:50:57.595Z,25.81
2016-06-22T11:51:57.568Z,25.81
2016-06-22T11:52:57.534Z,25.81
2016-06-22T11:53:57.535Z,25.75
2016-06-22T11:54:57.598Z,25.66
2016-06-22T11:55:57.697Z,25.79
2016-06-22T11:56:57.592Z,25.76
2016-06-22T11:57:57.554Z,25.79
2016-06-22T11:58:57.603Z,25.78
2016-06-22T11:59:57.586Z,25.86
2016-06-22T12:00:57.534Z,25.82
2016-06-22T12:01:57.547Z,25.82
2016-06-22T12:02:57.490Z,25.86
2016-06-22T12:03:57.528Z,25.71
2016-06-22T12:04:57.566Z,25.75
2016-06-22T12:05:57.560Z,25.7
2016-06-22T12:06:57.542Z,25.66
2016-06-22T12:07:57.606Z,25.67
2016-06-22T12:08:57.542Z,25.71
2016-06-22T12:09:57.569Z,25.71
2016-06-22T12:10:57.613Z,25.64
2016-06-22T12:11:57.606Z,25.63
2016-06-22T12:12:57.598Z,25.69
2016-06-22T12:13:57.626Z,25.62
2016-06-22T12:14:57.633Z,25.74
2016-06-22T12:15:57.586Z,25.67
2016-06-22T12:16:57.538Z,25.81
2016-06-22T12:17:57.559Z,25.7
2016-06-22T12:18:57.580Z,25.69
2016-06-22T12:19:57.696Z,25.74
2016-06-22T12:20:57.577Z,25.69
2016-06-22T12:21:57.631Z,25.64
2016-06-22T12:22:57.583Z,25.69
2016-06-22T12:23:57.710Z,25.64
2016-06-22T12:24:57.548Z,25.74
2016-06-22T12:25:57.530Z,25.71
2016-06-22T12:26:57.532Z,25.75
2016-06-22T12:27:57.576Z,25.79
2016-06-22T12:28:57.621Z,25.76
2016-06-22T12:29:57.530Z,25.85
2016-06-22T12:30:57.547Z,25.78
2016-06-22T12:31:57.602Z,25.85
2016-06-22T12:32:57.591Z,25.89
2016-06-22T12:33:57.726Z,25.94
2016-06-22T12:34:57.549Z,25.96
2016-06-22T12:35:57.665Z,26.06
2016-06-22T12:36:57.658Z,26.26
2016-06-22T12:37:57.538Z,26.2
2016-06-22T12:38:57.583Z,26.24
2016-06-22T12:39:57.658Z,26.27
2016-06-22T12:40:57.571Z,26.17
2016-06-22T12:41:57.689Z,26.27
2016-06-22T12:42:57.610Z,26.27
2016-06-22T12:43:57.676Z,26.24
2016-06-22T12:44:57.641Z,26.2
2016-06-22T12:45:57.661Z,26.15
2016-06-22T12:46:57.564Z,26.17
2016-06-22T12:47:57.650Z,26.15
2016-06-22T12:48:57.594Z,26.16
2016-06-22T12:49:57.640Z,26.06
2016-06-22T12:50:57.660Z,26.12
2016-06-22T12:51:57.639Z,26.03
2016-06-22T12:52:57.598Z,26.09
2016-06-22T12:53:57.575Z,26.16
2016-06-22T12:54:57.640Z,26.06
2016-06-22T12:55:57.598Z,25.97
2016-06-22T12:56:57.613Z,25.94